createdAt,value
2022-11-28T12:35:01.000Z,99.95
2022-11-28T12:40:01.000Z,99.83
2022-11-28T12:45:01.000Z,99.53
2022-11-28T12:50:01.000Z,99.42
2022-11-28T12:55:01.000Z,99.45
2022-11-28T13:00:01.000Z,99.32
2022-11-28T13:05:01.000Z,99.26
2022-11-28T13:10:01.000Z,99.15
2022-11-28T13:15:01.000Z,98.97
2022-11-28T13:20:02.000Z,98.80
2022-11-28T13:25:01.000Z,99.06
2022-11-28T13:30:01.000Z,99.03
2022-11-28T13:35:01.000Z,98.90
2022-11-28T13:40:01.000Z,98.85
2022-11-28T13:45:01.000Z,98.46
2022-11-28T13:50:01.000Z,97.32
2022-11-28T13:55:02.000Z,97.16
2022-11-28T14:00:01.000Z,97.11
2022-11-28T14:05:02.000Z,96.10
2022-11-28T14:10:01.000Z,96.31
2022-11-28T14:15:01.000Z,95.99
2022-11-28T14:20:02.000Z,95.61
2022-11-28T14:25:02.000Z,95.43
2022-11-28T14:30:02.000Z,94.84
2022-11-28T14:35:02.000Z,94.90
2022-11-28T14:40:01.000Z,94.49
2022-11-28T14:45:01.000Z,94.96
2022-11-28T14:50:01.000Z,95.31
2022-11-28T14:55:01.000Z,95.71
2022-11-28T15:00:02.000Z,95.26
2022-11-28T15:05:01.000Z,95.29
2022-11-28T15:10:02.000Z,95.68
2022-11-28T15:15:01.000Z,95.97
2022-11-28T15:20:02.000Z,96.33
2022-11-28T15:25:02.000Z,96.13
2022-11-28T15:30:02.000Z,95.83
2022-11-28T15:35:02.000Z,96.21
2022-11-28T15:40:01.000Z,96.45
2022-11-28T15:45:01.000Z,96.18
2022-11-28T15:50:01.000Z,96.30
2022-11-28T15:55:02.000Z,96.60
2022-11-28T16:00:02.000Z,96.92
2022-11-28T16:05:02.000Z,97.07
2022-11-28T16:10:02.000Z,97.13
2022-11-28T16:15:01.000Z,97.75
2022-11-28T16:20:01.000Z,98.32
2022-11-28T16:25:02.000Z,98.87
2022-11-28T16:30:01.000Z,98.77
2022-11-28T16:35:01.000Z,98.52
2022-11-28T16:40:01.000Z,98.50
2022-11-28T16:45:02.000Z,98.43
2022-11-28T16:50:01.000Z,98.55
2022-11-28T16:55:01.000Z,98.29
2022-11-28T17:00:01.000Z,98.32
2022-11-28T17:05:02.000Z,98.37
2022-11-28T17:10:01.000Z,98.70
2022-11-28T17:15:01.000Z,98.70
2022-11-28T17:20:02.000Z,98.61
2022-11-28T17:25:02.000Z,98.08
2022-11-28T17:30:01.000Z,97.84
2022-11-28T17:35:02.000Z,97.81
2022-11-28T17:40:02.000Z,97.90
2022-11-28T17:45:01.000Z,97.99
2022-11-28T17:50:02.000Z,97.87
2022-11-28T17:55:02.000Z,97.65
2022-11-28T18:00:02.000Z,97.92
2022-11-28T18:05:01.000Z,97.81
2022-11-28T18:10:01.000Z,97.71
2022-11-28T18:15:01.000Z,97.54
2022-11-28T18:20:02.000Z,98.16
2022-11-28T18:25:01.000Z,98.27
2022-11-28T18:30:01.000Z,98.10
2022-11-28T18:35:01.000Z,98.06
2022-11-28T18:40:01.000Z,98.24
2022-11-28T18:45:02.000Z,98.45
2022-11-28T18:50:01.000Z,98.77
2022-11-28T18:55:02.000Z,98.84
2022-11-28T19:00:01.000Z,98.90
2022-11-28T19:05:01.000Z,99.09
2022-11-28T19:10:01.000Z,99.25
2022-11-28T19:15:02.000Z,99.22
2022-11-28T19:20:01.000Z,99.48
2022-11-28T19:25:01.000Z,99.71
2022-11-28T19:30:01.000Z,99.87
2022-11-28T19:35:02.000Z,99.96
2022-11-28T19:40:02.000Z,100.22
2022-11-28T19:45:01.000Z,100.25
2022-11-28T19:50:01.000Z,100.43
2022-11-28T19:55:01.000Z,100.67
2022-11-28T20:00:02.000Z,100.73
2022-11-28T20:05:01.000Z,100.90
2022-11-28T20:10:01.000Z,100.88
2022-11-28T20:15:01.000Z,100.88
2022-11-28T20:20:01.000Z,100.91
2022-11-28T20:25:02.000Z,100.97
2022-11-28T20:30:01.000Z,101.06
2022-11-28T20:35:01.000Z,101.12
2022-11-28T20:40:01.000Z,101.12
2022-11-28T20:45:02.000Z,101.12
2022-11-28T20:50:01.000Z,101.23
2022-11-28T20:55:02.000Z,101.23
2022-11-28T21:00:01.000Z,101.23
2022-11-28T21:05:01.000Z,101.26
2022-11-28T21:10:02.000Z,101.23
2022-11-28T21:15:02.000Z,101.23
2022-11-28T21:20:01.000Z,101.18
2022-11-28T21:25:02.000Z,101.21
2022-11-28T21:30:01.000Z,101.21
2022-11-28T21:35:01.000Z,101.21
2022-11-28T21:40:01.000Z,101.23
2022-11-28T21:45:01.000Z,101.29
2022-11-28T21:50:01.000Z,101.32
2022-11-28T21:55:01.000Z,101.35
2022-11-28T22:00:01.000Z,101.35
2022-11-28T22:05:01.000Z,101.38
2022-11-28T22:10:01.000Z,101.38
2022-11-28T22:15:01.000Z,101.44
2022-11-28T22:20:01.000Z,101.44
2022-11-28T22:25:02.000Z,101.44
2022-11-28T22:30:02.000Z,101.44
2022-11-28T22:35:02.000Z,101.44
2022-11-28T22:40:01.000Z,101.44
2022-11-28T22:45:01.000Z,101.44
2022-11-28T22:50:02.000Z,101.44
2022-11-28T22:55:01.000Z,101.38
2022-11-28T23:00:02.000Z,101.38
2022-11-28T23:05:01.000Z,101.38
2022-11-28T23:10:02.000Z,101.44
2022-11-28T23:15:01.000Z,101.44
2022-11-28T23:20:02.000Z,101.44
2022-11-28T23:25:02.000Z,101.44
2022-11-28T23:30:01.000Z,101.44
2022-11-28T23:35:02.000Z,101.38
2022-11-28T23:40:01.000Z,101.38
2022-11-28T23:45:01.000Z,101.38
2022-11-28T23:50:02.000Z,101.38
2022-11-28T23:55:02.000Z,101.38
